Hauptseite
METAR-TAF:

METAR-TAF

Flughäfen :

Flughafen Basel-Mülhausen

Basel-Mülhausen, Frankreich

Breite: 47-36N, Länge: 007-31E, Höhe: 270 m

Beobachtung

Neuester Wetterbericht von vor 35 Minuten, um 15:30 UTC
Wind 2 kt aus unterschiedlichen Richtungen
Temperatur 25°C
Luftfeuchtigkeit 57%
Luftdruck 1022 hPa
Sichtweite 10 km oder mehr
Aufgelockert bewölkt in der Höhe von 3600 ft

METAR: LFSB 231530Z VRB02KT 9999 SCT036 25/16 Q1022 NOSIG

Zeit: 18:05 (16:05 UTC)

Prognose

Neuester Wetterbericht von vor 5 Stunden und 5 Minuten, um 11:00 UTC
Gültige Prognose vom 23 um 12 UTC bis 24 um 12 UTC
Wind 3 kt aus unterschiedlichen Richtungen
Sichtweite 10 km oder mehr
keine Wolken unter 1500 m und keine Kumulonimbus oder Gewitterwolken
Zeitweise
vom 23 um 12 UTC bis 23 um 15 UTC
Wind 5 kt aus Nord

TAF: LFSB 231100Z 2312/2412 VRB03KT CAVOK TEMPO 2312/2315 36005KT

Wetterbeobachtungen und Prognosen von mehr als 4000 Flughäfen (METAR und TAF Bericht).

Die verfügbaren Stationen werden durch gelbe und rote Markierungen auf der Karte dargestellt.

Führen Sie die Maus auf sie, um den Namen der Station zu sehen.

Darauf klicken, um die Beobachtung von Wetterbeobachtungen und Prognosen zu sehen.

Um die Karte zu ändern : klicken Sie auf den grünen Tasten mit einem schwarzen Kreuz Zum Vergrößern, auf den grünen Button mit einem Gedankenstrich zu verkleinern, oder auf die grünen Pfeile für benachbarte Karten.


METAR-TAF: